Time;durP1;ratioP1;P1;durP2;ratioP2;P2;SDS_P1;SDS_P2;PMS_P1;PMS_P2;Temp;Humidity;BMP_temperature;BMP_pressure;BME280_temperature;BME280_humidity;BME280_pressure;Samples;Min_cycle;Max_cycle;Signal;HPM_P1;HPM_P2
2022/03/09 00:00:29;;;;;;;1.40;0.93;;;17.00;57.80;;;;;;5217484;28;20688;-66
2022/03/09 00:03:21;;;;;;;1.30;1.00;;;17.10;58.40;;;;;;5227726;28;20254;-65
2022/03/09 00:06:13;;;;;;;1.03;0.93;;;17.10;57.90;;;;;;5227880;28;20213;-64
2022/03/09 00:09:06;;;;;;;1.27;1.00;;;17.10;57.80;;;;;;5210410;28;20316;-65
2022/03/09 00:12:00;;;;;;;1.20;1.10;;;17.00;57.80;;;;;;5225681;28;20201;-65
2022/03/09 00:14:52;;;;;;;2.03;1.20;;;17.00;57.80;;;;;;5227128;28;20289;-65
2022/03/09 00:17:44;;;;;;;1.77;1.27;;;17.10;57.80;;;;;;5227132;28;20303;-65
2022/03/09 00:20:36;;;;;;;2.07;1.30;;;17.00;57.80;;;;;;5206175;28;20198;-64
2022/03/09 00:23:28;;;;;;;1.57;1.30;;;17.00;57.70;;;;;;5186418;28;20666;-64
2022/03/09 00:26:20;;;;;;;1.83;1.40;;;17.00;57.80;;;;;;5185970;28;20301;-64
2022/03/09 00:29:14;;;;;;;1.83;1.23;;;17.10;57.80;;;;;;5185619;28;20900;-64
2022/03/09 00:32:07;;;;;;;1.73;1.43;;;17.00;57.70;;;;;;5185861;28;20213;-65
2022/03/09 00:34:59;;;;;;;1.83;1.37;;;17.00;57.70;;;;;;5187136;28;20195;-65
2022/03/09 00:37:52;;;;;;;1.60;1.30;;;17.10;57.80;;;;;;5209995;28;20228;-65
2022/03/09 00:40:47;;;;;;;1.30;1.20;;;17.10;57.80;;;;;;5223018;28;20193;-65
2022/03/09 00:43:39;;;;;;;2.07;1.40;;;17.00;57.80;;;;;;5189971;28;20195;-65
2022/03/09 00:46:33;;;;;;;1.30;1.10;;;17.10;57.70;;;;;;5185735;28;20713;-65
2022/03/09 00:49:25;;;;;;;2.00;1.43;;;17.00;57.80;;;;;;5190490;28;20577;-65
2022/03/09 00:52:17;;;;;;;1.70;1.30;;;17.00;58.30;;;;;;5185919;28;20201;-65
2022/03/09 00:55:10;;;;;;;2.03;1.20;;;17.00;57.60;;;;;;5186013;28;20212;-65
2022/03/09 00:58:02;;;;;;;1.50;1.20;;;17.00;57.70;;;;;;5193574;28;20226;-65
2022/03/09 01:00:54;;;;;;;3.33;1.53;;;17.00;57.70;;;;;;5202809;28;20783;-65
2022/03/09 01:03:47;;;;;;;1.77;1.27;;;17.10;57.70;;;;;;5206052;28;20239;-65
2022/03/09 01:06:39;;;;;;;1.20;1.10;;;17.10;57.70;;;;;;5205193;28;20220;-65
2022/03/09 01:09:32;;;;;;;1.00;0.90;;;17.00;57.60;;;;;;5205473;28;20198;-65
2022/03/09 01:12:24;;;;;;;1.77;1.23;;;17.00;57.60;;;;;;5206015;28;20719;-64
2022/03/09 01:15:16;;;;;;;1.40;1.30;;;17.00;57.50;;;;;;5206170;28;20272;-64
2022/03/09 01:18:08;;;;;;;1.73;1.23;;;17.00;57.60;;;;;;5205821;28;20218;-65
2022/03/09 01:21:02;;;;;;;1.53;1.20;;;17.00;57.60;;;;;;5201504;28;20195;-65
2022/03/09 01:23:54;;;;;;;1.50;1.17;;;17.00;57.70;;;;;;5200425;28;20273;-65
2022/03/09 01:26:46;;;;;;;1.37;1.20;;;17.10;57.70;;;;;;5208542;28;20218;-65
2022/03/09 01:29:38;;;;;;;1.30;1.20;;;17.00;57.70;;;;;;5212141;28;20679;-65
2022/03/09 01:32:30;;;;;;;1.27;1.07;;;17.00;57.60;;;;;;5202912;28;20198;-65
2022/03/09 01:35:22;;;;;;;2.00;1.30;;;17.00;57.60;;;;;;5205106;28;20198;-65
2022/03/09 01:38:16;;;;;;;1.70;1.20;;;17.00;57.60;;;;;;5206323;28;20209;-65
2022/03/09 01:41:08;;;;;;;1.80;1.30;;;17.00;57.50;;;;;;5204626;28;20219;-65
2022/03/09 01:44:11;;;;;;;2.13;1.40;;;17.00;57.40;;;;;;5204912;28;20715;-65
2022/03/09 01:47:03;;;;;;;1.13;0.83;;;17.00;57.50;;;;;;5204963;28;20213;-65
2022/03/09 01:49:55;;;;;;;1.43;1.20;;;17.00;57.50;;;;;;5211717;28;20212;-65
2022/03/09 01:52:48;;;;;;;1.70;1.13;;;17.00;57.60;;;;;;5215131;28;20190;-65
2022/03/09 01:55:42;;;;;;;1.30;1.20;;;17.10;57.60;;;;;;5205609;28;20204;-65
2022/03/09 01:58:34;;;;;;;2.07;1.20;;;17.00;57.50;;;;;;5201646;28;20247;-65
2022/03/09 02:01:26;;;;;;;1.33;1.23;;;17.00;57.50;;;;;;5184615;28;20197;-66
2022/03/09 02:04:19;;;;;;;2.03;1.60;;;17.00;57.50;;;;;;5185209;28;20589;-65
2022/03/09 02:07:12;;;;;;;1.53;1.20;;;17.00;57.40;;;;;;5184772;28;20219;-65
2022/03/09 02:10:04;;;;;;;1.83;1.20;;;17.00;57.40;;;;;;5185413;28;20214;-66
2022/03/09 02:12:58;;;;;;;1.20;1.10;;;17.00;57.40;;;;;;5185123;28;20202;-65
2022/03/09 02:15:50;;;;;;;2.00;1.50;;;17.00;57.50;;;;;;5184902;28;20199;-67
2022/03/09 02:18:42;;;;;;;2.70;1.40;;;17.00;57.40;;;;;;5185714;28;20197;-65
2022/03/09 02:21:34;;;;;;;1.67;1.27;;;17.00;57.50;;;;;;5184293;28;20317;-66
2022/03/09 02:24:28;;;;;;;1.27;1.03;;;17.00;57.40;;;;;;5198506;28;20664;-65
2022/03/09 02:27:21;;;;;;;1.60;1.40;;;17.00;57.40;;;;;;5211717;28;20286;-66
2022/03/09 02:30:17;;;;;;;1.50;1.30;;;17.00;57.30;;;;;;5224983;28;20217;-66
2022/03/09 02:33:09;;;;;;;1.80;1.10;;;17.00;57.40;;;;;;5224722;28;20579;-66
2022/03/09 02:36:02;;;;;;;1.40;1.27;;;17.00;57.30;;;;;;5225005;28;20193;-65
2022/03/09 02:38:54;;;;;;;2.00;1.47;;;17.00;57.30;;;;;;5217171;28;20201;-65
2022/03/09 02:41:48;;;;;;;1.37;1.20;;;17.00;57.30;;;;;;5204783;28;20201;-66
2022/03/09 02:44:40;;;;;;;1.93;1.20;;;17.00;57.30;;;;;;5204445;28;20194;-66
2022/03/09 02:47:32;;;;;;;1.63;1.23;;;17.00;57.40;;;;;;5204731;28;20213;-66
2022/03/09 02:50:25;;;;;;;1.40;1.10;;;17.00;57.30;;;;;;5207528;28;20218;-66
2022/03/09 02:53:17;;;;;;;1.30;1.03;;;17.10;57.30;;;;;;5186924;28;20670;-65
2022/03/09 02:56:09;;;;;;;1.70;1.23;;;17.00;57.20;;;;;;5184829;28;20296;-66
2022/03/09 02:59:02;;;;;;;1.60;1.40;;;17.00;57.30;;;;;;5183719;28;20201;-66
2022/03/09 03:01:54;;;;;;;1.60;1.30;;;17.00;57.30;;;;;;5184162;28;20190;-66
2022/03/09 03:04:46;;;;;;;1.50;1.37;;;17.00;57.30;;;;;;5184322;28;20684;-65
2022/03/09 03:07:39;;;;;;;3.13;1.23;;;17.00;57.20;;;;;;5207812;28;20350;-65
2022/03/09 03:10:31;;;;;;;1.50;1.27;;;17.00;57.30;;;;;;5214881;28;20217;-65
2022/03/09 03:13:23;;;;;;;1.33;1.20;;;17.00;57.20;;;;;;5224477;28;20198;-65
2022/03/09 03:16:16;;;;;;;1.30;1.20;;;17.00;57.20;;;;;;5196440;28;20207;-64
2022/03/09 03:19:08;;;;;;;1.23;1.13;;;17.00;57.20;;;;;;5183484;28;20198;-65
2022/03/09 03:22:01;;;;;;;1.70;1.20;;;17.00;57.20;;;;;;5183625;28;20187;-65
2022/03/09 03:24:53;;;;;;;1.40;1.10;;;17.00;57.20;;;;;;5202680;28;20204;-66
2022/03/09 03:27:45;;;;;;;1.40;1.07;;;17.00;57.20;;;;;;5215096;28;20217;-65
2022/03/09 03:30:37;;;;;;;1.50;1.27;;;17.00;57.20;;;;;;5187585;28;20281;-65
2022/03/09 03:33:30;;;;;;;1.17;1.07;;;17.00;57.20;;;;;;5214835;28;20190;-65
2022/03/09 03:36:22;;;;;;;1.47;1.33;;;17.00;57.20;;;;;;5187492;28;20598;-65
2022/03/09 03:39:15;;;;;;;2.20;1.20;;;17.00;57.10;;;;;;5188073;28;20278;-65
2022/03/09 03:42:07;;;;;;;1.57;1.20;;;17.00;57.10;;;;;;5187298;28;20198;-66
2022/03/09 03:44:59;;;;;;;1.20;1.10;;;17.00;57.10;;;;;;5187337;28;20201;-65
2022/03/09 03:47:52;;;;;;;1.23;1.10;;;17.00;57.10;;;;;;5187159;28;20598;-65
2022/03/09 03:50:45;;;;;;;2.03;1.30;;;17.00;57.20;;;;;;5213593;28;20226;-65
2022/03/09 03:53:37;;;;;;;1.87;1.20;;;17.00;57.20;;;;;;5223672;28;20198;-65
2022/03/09 03:56:30;;;;;;;1.03;0.87;;;17.00;57.20;;;;;;5187235;28;20222;-65
2022/03/09 03:59:22;;;;;;;1.87;1.13;;;17.00;57.10;;;;;;5186413;28;20332;-65
2022/03/09 04:02:14;;;;;;;1.47;1.00;;;17.00;57.10;;;;;;5191214;28;20297;-65
2022/03/09 04:05:07;;;;;;;1.73;1.27;;;17.00;57.00;;;;;;5207732;28;20189;-64
2022/03/09 04:08:01;;;;;;;1.37;1.10;;;17.00;57.10;;;;;;5206388;28;20218;-65
2022/03/09 04:10:53;;;;;;;1.87;1.10;;;17.00;57.00;;;;;;5207455;28;20221;-65
2022/03/09 04:13:45;;;;;;;1.90;1.20;;;17.00;57.10;;;;;;5194489;28;20248;-66
2022/03/09 04:16:37;;;;;;;1.00;0.90;;;16.90;57.00;;;;;;5186275;28;20241;-66
2022/03/09 04:19:30;;;;;;;1.27;1.00;;;17.00;57.10;;;;;;5186087;28;20199;-66
2022/03/09 04:22:22;;;;;;;2.53;1.40;;;17.00;57.00;;;;;;5186266;28;20201;-65
2022/03/09 04:25:15;;;;;;;1.07;0.90;;;17.00;56.90;;;;;;5208310;28;20198;-64
2022/03/09 04:28:07;;;;;;;1.50;1.07;;;16.90;56.90;;;;;;5221454;28;20224;-65
2022/03/09 04:31:00;;;;;;;1.50;1.10;;;17.00;56.90;;;;;;5206285;28;20214;-65
2022/03/09 04:33:52;;;;;;;2.17;1.10;;;17.00;56.90;;;;;;5206998;28;20196;-66
2022/03/09 04:36:44;;;;;;;1.30;1.10;;;16.90;56.80;;;;;;5196207;28;20218;-65
2022/03/09 04:39:36;;;;;;;1.23;1.10;;;16.90;56.90;;;;;;5196239;28;20280;-64
2022/03/09 04:42:31;;;;;;;1.67;0.93;;;16.90;56.80;;;;;;5196612;28;20186;-64
2022/03/09 04:45:23;;;;;;;1.40;1.00;;;17.00;56.90;;;;;;5197033;28;20214;-64
2022/03/09 04:48:15;;;;;;;1.87;1.10;;;17.00;56.80;;;;;;5199927;28;20232;-64
2022/03/09 04:51:07;;;;;;;1.10;1.00;;;17.00;56.90;;;;;;5206200;28;20281;-64
2022/03/09 04:53:59;;;;;;;1.00;0.90;;;17.00;56.70;;;;;;5200213;28;20198;-65
2022/03/09 04:56:52;;;;;;;2.17;1.40;;;17.00;56.80;;;;;;5191885;28;20264;-64
2022/03/09 04:59:45;;;;;;;1.40;1.10;;;17.00;56.70;;;;;;5192202;28;20256;-64
2022/03/09 05:02:38;;;;;;;1.50;1.40;;;17.00;56.70;;;;;;5190715;28;20194;-63
2022/03/09 05:05:30;;;;;;;1.00;0.77;;;17.00;56.70;;;;;;5200544;28;20232;-63
2022/03/09 05:08:22;;;;;;;0.87;0.87;;;17.00;56.60;;;;;;5195057;28;20219;-64
2022/03/09 05:11:15;;;;;;;1.30;1.10;;;17.00;56.70;;;;;;5193779;28;20210;-64
2022/03/09 05:14:07;;;;;;;1.43;1.20;;;17.00;56.70;;;;;;5193514;28;20198;-64
2022/03/09 05:17:01;;;;;;;2.07;1.00;;;17.10;56.70;;;;;;5192478;28;20301;-64
2022/03/09 05:19:53;;;;;;;1.03;0.90;;;17.00;56.70;;;;;;5193534;28;20198;-64
2022/03/09 05:22:45;;;;;;;0.93;0.80;;;17.00;56.70;;;;;;5191499;28;20190;-64
2022/03/09 05:25:37;;;;;;;1.23;1.10;;;17.00;56.70;;;;;;5193263;28;20206;-64
2022/03/09 05:28:29;;;;;;;1.23;0.97;;;17.10;56.70;;;;;;5192101;28;20195;-64
2022/03/09 05:31:22;;;;;;;1.47;1.20;;;17.00;56.60;;;;;;5192847;28;20236;-64
2022/03/09 05:34:16;;;;;;;1.40;1.10;;;17.00;56.60;;;;;;5197486;28;20194;-65
2022/03/09 05:37:09;;;;;;;2.27;0.80;;;17.10;56.70;;;;;;5191799;28;20222;-63
2022/03/09 05:40:01;;;;;;;0.93;0.90;;;17.10;56.50;;;;;;5193447;28;20661;-64
2022/03/09 05:42:53;;;;;;;1.17;1.07;;;17.10;56.60;;;;;;5203085;28;20194;-64
2022/03/09 05:45:45;;;;;;;1.03;0.73;;;17.00;56.50;;;;;;5225339;28;20272;-64
2022/03/09 05:48:37;;;;;;;1.80;0.90;;;17.00;56.60;;;;;;5224735;28;20200;-64
2022/03/09 05:51:31;;;;;;;1.07;0.87;;;17.00;56.50;;;;;;5205870;28;20589;-64
2022/03/09 05:54:23;;;;;;;1.10;1.00;;;17.10;56.60;;;;;;5204980;28;20197;-63
2022/03/09 05:57:19;;;;;;;1.10;1.00;;;17.00;56.70;;;;;;5233192;22;20237;-64
2022/03/09 06:00:12;;;;;;;1.10;0.70;;;17.10;56.70;;;;;;5223834;28;20197;-64
2022/03/09 06:03:04;;;;;;;1.20;1.10;;;17.00;56.30;;;;;;5220609;28;20731;-64
2022/03/09 06:05:56;;;;;;;1.23;1.10;;;17.10;56.80;;;;;;5217496;28;20274;-64
2022/03/09 06:08:49;;;;;;;1.00;0.90;;;17.00;56.50;;;;;;5200874;28;20276;-64
2022/03/09 06:11:42;;;;;;;1.23;1.00;;;17.10;56.30;;;;;;5183969;28;20617;-64
2022/03/09 06:14:35;;;;;;;1.13;0.97;;;17.10;56.20;;;;;;5184259;28;20195;-64
2022/03/09 06:17:27;;;;;;;2.30;1.10;;;17.00;56.10;;;;;;5192480;28;20214;-64
2022/03/09 06:20:21;;;;;;;2.03;0.90;;;17.00;56.10;;;;;;5197862;28;20588;-63
2022/03/09 06:23:13;;;;;;;1.10;0.93;;;17.10;56.20;;;;;;5204926;28;20186;-64
2022/03/09 06:26:07;;;;;;;1.33;1.00;;;17.10;56.20;;;;;;5198320;28;20687;-64
2022/03/09 06:28:59;;;;;;;1.00;0.90;;;17.00;56.20;;;;;;5196313;28;20197;-64
2022/03/09 06:31:51;;;;;;;1.33;1.07;;;17.10;56.20;;;;;;5198648;28;20277;-64
2022/03/09 06:34:43;;;;;;;1.67;1.10;;;17.10;56.10;;;;;;5186445;28;20191;-64
2022/03/09 06:37:36;;;;;;;1.10;1.00;;;17.00;56.10;;;;;;5194481;28;20214;-65
2022/03/09 06:40:28;;;;;;;1.00;0.90;;;17.00;56.10;;;;;;5198321;28;20202;-65
2022/03/09 06:43:21;;;;;;;1.10;1.00;;;17.00;56.10;;;;;;5204587;28;20200;-63
2022/03/09 06:46:15;;;;;;;1.63;1.00;;;17.00;56.10;;;;;;5204809;28;20193;-64
2022/03/09 06:49:07;;;;;;;1.50;1.10;;;17.00;56.20;;;;;;5199088;28;20217;-65
2022/03/09 06:52:00;;;;;;;1.10;0.97;;;17.00;56.30;;;;;;5198550;28;20697;-64
2022/03/09 06:54:52;;;;;;;1.77;1.10;;;17.00;56.20;;;;;;5201624;28;20213;-65
2022/03/09 06:57:44;;;;;;;1.73;1.00;;;17.10;56.30;;;;;;5200182;28;20217;-65
2022/03/09 07:00:37;;;;;;;1.17;0.90;;;17.10;56.20;;;;;;5186344;28;20195;-65
2022/03/09 07:03:30;;;;;;;1.40;1.03;;;17.00;56.10;;;;;;5199911;28;20208;-65
2022/03/09 07:06:22;;;;;;;1.30;1.20;;;17.00;56.10;;;;;;5208033;28;20198;-64
2022/03/09 07:09:15;;;;;;;2.03;1.37;;;17.00;56.10;;;;;;5207800;28;20200;-65
2022/03/09 07:12:08;;;;;;;1.40;1.07;;;17.00;56.20;;;;;;5207764;28;20224;-65
2022/03/09 07:15:00;;;;;;;1.40;1.00;;;17.00;56.20;;;;;;5207792;28;20615;-65
2022/03/09 07:17:54;;;;;;;1.30;1.00;;;17.00;56.20;;;;;;5188074;28;20293;-65
2022/03/09 07:20:46;;;;;;;1.20;1.00;;;17.00;56.20;;;;;;5187244;28;20757;-65
2022/03/09 07:23:38;;;;;;;1.37;1.07;;;17.00;56.20;;;;;;5198813;28;20198;-67
2022/03/09 07:26:30;;;;;;;1.50;1.13;;;17.00;56.70;;;;;;5207160;28;20194;-67
2022/03/09 07:29:22;;;;;;;2.60;1.00;;;17.10;57.20;;;;;;5206352;28;20204;-64
2022/03/09 07:32:15;;;;;;;2.60;1.30;;;17.10;56.80;;;;;;5199910;28;20220;-66
2022/03/09 07:35:10;;;;;;;2.73;1.00;;;17.10;56.90;;;;;;5208108;28;20190;-66
2022/03/09 07:38:03;;;;;;;1.47;1.10;;;17.10;56.70;;;;;;5208689;28;20214;-66
2022/03/09 07:40:56;;;;;;;1.60;1.10;;;17.10;56.50;;;;;;5207584;28;20209;-66
2022/03/09 07:43:48;;;;;;;3.03;1.33;;;17.10;56.50;;;;;;5207976;28;20677;-65
2022/03/09 07:46:40;;;;;;;2.37;1.37;;;17.20;56.40;;;;;;5207851;28;20240;-65
2022/03/09 07:49:33;;;;;;;2.03;1.40;;;17.20;56.50;;;;;;5198133;28;20197;-66
2022/03/09 07:52:26;;;;;;;2.13;1.30;;;17.20;56.60;;;;;;5186314;28;20214;-65
2022/03/09 07:55:19;;;;;;;1.60;1.37;;;17.20;56.60;;;;;;5186446;28;20198;-66
2022/03/09 07:58:11;;;;;;;2.77;1.70;;;17.20;56.70;;;;;;5187801;28;20226;-65
2022/03/09 08:01:04;;;;;;;2.33;1.50;;;17.20;56.80;;;;;;5186137;28;20198;-64
2022/03/09 08:03:56;;;;;;;3.10;1.87;;;17.20;56.90;;;;;;5200737;28;20204;-65
2022/03/09 08:06:48;;;;;;;2.43;1.50;;;17.20;56.70;;;;;;5207036;28;20596;-65
2022/03/09 08:09:42;;;;;;;2.73;1.73;;;17.20;56.60;;;;;;5206561;28;20198;-64
2022/03/09 08:12:34;;;;;;;3.03;1.80;;;17.20;56.60;;;;;;5206345;28;20218;-64
2022/03/09 08:15:26;;;;;;;2.83;1.90;;;17.20;56.70;;;;;;5206765;28;20299;-64
2022/03/09 08:18:19;;;;;;;2.93;1.90;;;17.20;56.80;;;;;;5206368;28;20221;-64
2022/03/09 08:21:11;;;;;;;3.97;2.23;;;17.20;57.40;;;;;;5206302;28;20220;-64
2022/03/09 08:24:03;;;;;;;2.53;1.83;;;17.20;56.90;;;;;;5206857;28;20594;-68
2022/03/09 08:26:57;;;;;;;2.37;1.53;;;17.20;57.40;;;;;;5206498;28;20218;-67
2022/03/09 08:29:50;;;;;;;2.40;1.77;;;17.20;57.60;;;;;;5199313;28;20196;-68
2022/03/09 08:32:42;;;;;;;2.73;1.77;;;17.20;57.60;;;;;;5203498;28;20222;-67
2022/03/09 08:35:34;;;;;;;2.70;1.90;;;17.20;57.60;;;;;;5206783;28;20665;-65
2022/03/09 08:38:26;;;;;;;2.13;1.73;;;17.20;57.60;;;;;;5190119;28;20425;-63
2022/03/09 08:41:19;;;;;;;2.23;1.47;;;17.20;57.30;;;;;;5185928;28;20199;-63
2022/03/09 08:44:12;;;;;;;2.70;2.20;;;17.20;57.00;;;;;;5185941;28;20205;-63
2022/03/09 08:47:05;;;;;;;2.93;1.87;;;17.20;56.90;;;;;;5186351;28;20222;-63
2022/03/09 08:49:57;;;;;;;2.97;2.10;;;17.20;56.90;;;;;;5193143;28;20194;-64
2022/03/09 08:52:50;;;;;;;2.33;1.63;;;17.20;57.00;;;;;;5203392;28;20579;-64
2022/03/09 08:55:42;;;;;;;2.47;1.60;;;17.10;57.00;;;;;;5186038;28;20210;-64
2022/03/09 08:58:34;;;;;;;2.00;1.60;;;17.20;57.10;;;;;;5185937;28;20222;-63
2022/03/09 09:01:27;;;;;;;2.63;1.70;;;17.10;57.00;;;;;;5193468;28;20202;-64
2022/03/09 09:04:19;;;;;;;1.87;1.27;;;17.10;57.20;;;;;;5184770;28;20543;-63
2022/03/09 09:07:11;;;;;;;2.60;1.70;;;17.20;57.20;;;;;;5185327;28;20221;-63
2022/03/09 09:10:04;;;;;;;2.20;1.40;;;17.10;57.30;;;;;;5185131;28;20202;-64
2022/03/09 09:12:57;;;;;;;2.60;1.60;;;17.10;57.40;;;;;;5185251;28;20694;-64
2022/03/09 09:15:49;;;;;;;2.50;1.53;;;17.10;57.40;;;;;;5210474;28;20190;-63
2022/03/09 09:18:43;;;;;;;2.10;1.70;;;17.10;57.40;;;;;;5203803;28;20732;-63
2022/03/09 09:21:35;;;;;;;2.10;1.50;;;17.20;57.50;;;;;;5205874;28;20278;-64
2022/03/09 09:24:28;;;;;;;2.03;1.60;;;17.10;57.50;;;;;;5205417;28;20197;-63
2022/03/09 09:27:20;;;;;;;1.57;1.30;;;17.10;57.40;;;;;;5208421;28;20263;-63
2022/03/09 09:30:13;;;;;;;1.97;1.23;;;17.10;57.50;;;;;;5193887;28;20205;-63
2022/03/09 09:33:05;;;;;;;2.30;1.40;;;17.10;57.60;;;;;;5186004;28;20211;-64
2022/03/09 09:35:58;;;;;;;2.13;1.63;;;17.10;57.70;;;;;;5184846;28;20198;-63
2022/03/09 09:38:50;;;;;;;2.47;1.43;;;17.10;57.60;;;;;;5184798;28;20276;-63
2022/03/09 09:41:43;;;;;;;2.17;1.40;;;17.10;57.70;;;;;;5192888;28;20669;-64
2022/03/09 09:44:35;;;;;;;2.13;1.60;;;17.20;57.80;;;;;;5189176;28;20272;-64
2022/03/09 09:47:28;;;;;;;2.50;1.77;;;17.10;57.80;;;;;;5185550;28;20219;-64
2022/03/09 09:50:21;;;;;;;2.40;1.50;;;17.10;58.20;;;;;;5193663;28;20193;-63
2022/03/09 09:53:15;;;;;;;1.90;1.70;;;17.10;58.10;;;;;;5205402;28;20225;-65
2022/03/09 09:56:07;;;;;;;2.33;1.77;;;17.10;58.00;;;;;;5205374;28;20198;-64
2022/03/09 09:59:00;;;;;;;4.40;2.27;;;17.10;57.80;;;;;;5205490;28;20193;-63
2022/03/09 10:01:52;;;;;;;2.87;2.00;;;17.10;57.80;;;;;;5202573;28;20206;-64
2022/03/09 10:04:46;;;;;;;2.93;2.00;;;17.10;57.90;;;;;;5184630;28;20569;-64
2022/03/09 10:08:08;;;;;;;3.40;2.33;;;17.10;57.90;;;;;;5184355;28;20649;-64
2022/03/09 10:11:03;;;;;;;3.57;2.33;;;17.10;58.00;;;;;;5184090;28;20195;-63
2022/03/09 10:13:55;;;;;;;3.70;2.50;;;17.10;58.00;;;;;;5184355;28;20210;-64
2022/03/09 10:17:04;;;;;;;3.97;2.80;;;17.20;58.00;;;;;;5184128;28;20292;-64
2022/03/09 10:19:59;;;;;;;5.00;2.80;;;17.10;58.10;;;;;;5185288;28;20190;-64
2022/03/09 10:22:52;;;;;;;4.30;2.73;;;17.10;58.00;;;;;;5183781;28;20199;-67
2022/03/09 10:25:44;;;;;;;3.77;2.20;;;17.10;58.00;;;;;;5185361;28;20194;-64
2022/03/09 10:28:41;;;;;;;4.40;2.77;;;17.20;58.40;;;;;;5204203;28;20222;-64
2022/03/09 10:31:38;;;;;;;4.27;3.00;;;17.10;58.00;;;;;;5192288;28;20213;-63
2022/03/09 10:34:30;;;;;;;4.13;2.70;;;17.10;58.00;;;;;;5204264;28;20212;-63
2022/03/09 10:37:22;;;;;;;4.87;2.87;;;17.10;58.00;;;;;;5199684;28;20220;-64
2022/03/09 10:40:17;;;;;;;4.83;3.10;;;17.10;58.00;;;;;;5188535;28;20216;-63
2022/03/09 10:43:13;;;;;;;5.40;3.10;;;17.10;58.00;;;;;;5187310;28;20198;-63
2022/03/09 10:46:09;;;;;;;5.43;3.43;;;17.10;58.00;;;;;;5191628;28;20198;-63
2022/03/09 10:49:02;;;;;;;5.30;2.93;;;17.10;58.00;;;;;;5199950;28;20340;-64
2022/03/09 10:51:54;;;;;;;5.23;3.17;;;17.10;58.30;;;;;;5187421;28;20190;-64
2022/03/09 10:54:46;;;;;;;4.27;3.00;;;17.10;58.20;;;;;;5190042;28;20325;-63
2022/03/09 10:57:38;;;;;;;4.97;3.20;;;17.10;58.40;;;;;;5188237;28;20605;-63
2022/03/09 11:00:43;;;;;;;5.20;3.20;;;17.10;58.10;;;;;;5188373;28;20209;-63
2022/03/09 11:03:36;;;;;;;4.07;2.60;;;17.10;58.20;;;;;;5188518;28;20191;-63
2022/03/09 11:06:28;;;;;;;5.40;3.33;;;17.10;58.20;;;;;;5202286;28;20193;-63
2022/03/09 11:09:20;;;;;;;4.00;2.97;;;17.10;58.20;;;;;;5207423;28;20194;-63
2022/03/09 11:12:13;;;;;;;4.73;3.03;;;17.10;58.20;;;;;;5206665;28;20206;-64
2022/03/09 11:15:06;;;;;;;3.13;2.43;;;17.10;58.30;;;;;;5201152;28;20198;-64
2022/03/09 11:17:58;;;;;;;4.83;2.67;;;17.10;58.30;;;;;;5189867;28;20221;-64
2022/03/09 11:20:55;;;;;;;3.60;2.40;;;17.10;58.00;;;;;;5199674;28;20186;-64
2022/03/09 11:23:50;;;;;;;4.40;2.70;;;17.10;57.80;;;;;;5208428;28;20209;-63
2022/03/09 11:26:46;;;;;;;5.00;3.13;;;17.10;57.70;;;;;;5207990;28;20297;-63
2022/03/09 11:29:41;;;;;;;4.10;2.50;;;17.10;57.60;;;;;;5207193;28;20206;-63
2022/03/09 11:32:35;;;;;;;4.03;2.63;;;17.10;57.60;;;;;;5187489;28;20581;-63
2022/03/09 11:35:32;;;;;;;5.37;2.50;;;17.10;57.60;;;;;;5187785;28;20202;-63
2022/03/09 11:38:41;;;;;;;3.93;2.30;;;17.10;57.50;;;;;;5200883;28;20236;-63
2022/03/09 11:41:36;;;;;;;4.17;2.80;;;17.00;57.50;;;;;;5187366;28;20209;-63
2022/03/09 11:44:30;;;;;;;3.20;2.17;;;17.00;57.50;;;;;;5192602;28;20197;-63
2022/03/09 11:47:22;;;;;;;2.97;2.07;;;17.10;57.80;;;;;;5205840;28;20803;-63
2022/03/09 11:50:14;;;;;;;3.50;2.23;;;17.10;58.10;;;;;;5197495;28;20641;-64
2022/03/09 11:53:09;;;;;;;4.70;2.53;;;17.10;58.10;;;;;;5187478;28;20218;-64
2022/03/09 11:56:37;;;;;;;3.43;2.10;;;17.10;58.10;;;;;;5187901;28;20264;-63
2022/03/09 11:59:31;;;;;;;3.10;2.10;;;17.10;58.20;;;;;;5196877;28;20197;-63
2022/03/09 12:02:23;;;;;;;3.80;2.37;;;17.10;58.20;;;;;;5206162;28;20207;-63
2022/03/09 12:05:40;;;;;;;3.87;2.10;;;17.10;58.20;;;;;;5207585;28;20190;-63
2022/03/09 12:08:45;;;;;;;2.23;1.70;;;17.10;58.20;;;;;;5187184;28;20748;-63
2022/03/09 12:12:08;;;;;;;4.13;2.30;;;17.10;58.10;;;;;;5186038;28;20194;-63
2022/03/09 12:15:03;;;;;;;3.23;2.20;;;17.10;58.20;;;;;;5187327;28;20211;-63
2022/03/09 12:17:55;;;;;;;4.07;2.30;;;17.10;58.30;;;;;;5195790;28;20214;-63
2022/03/09 12:20:49;;;;;;;3.87;1.90;;;17.10;58.30;;;;;;5198991;28;20202;-63
2022/03/09 12:24:26;;;;;;;3.30;1.80;;;17.10;58.40;;;;;;5206976;28;20194;-63
2022/03/09 12:27:29;;;;;;;3.20;2.00;;;17.10;58.40;;;;;;5195740;28;20697;-64
2022/03/09 12:30:41;;;;;;;4.00;2.27;;;17.10;58.50;;;;;;5185804;28;20269;-63
2022/03/09 12:33:36;;;;;;;3.83;2.20;;;17.10;58.50;;;;;;5185462;28;20226;-64
2022/03/09 12:36:28;;;;;;;5.27;2.40;;;17.10;58.50;;;;;;5185346;28;20198;-64
2022/03/09 12:39:20;;;;;;;4.27;2.20;;;17.10;58.50;;;;;;5188219;28;20197;-64
2022/03/09 12:42:12;;;;;;;4.27;2.63;;;17.10;58.60;;;;;;5186261;28;20662;-64
2022/03/09 12:45:05;;;;;;;5.27;2.90;;;17.10;58.70;;;;;;5190333;28;20669;-64
2022/03/09 12:47:59;;;;;;;4.67;2.80;;;17.10;58.80;;;;;;5187677;28;20309;-64
2022/03/09 12:50:51;;;;;;;5.57;3.00;;;17.10;58.80;;;;;;5199137;28;20283;-63
2022/03/09 12:53:44;;;;;;;5.80;3.30;;;17.10;58.90;;;;;;5206244;28;20213;-64
2022/03/09 12:56:38;;;;;;;5.73;3.17;;;17.10;58.90;;;;;;5205683;28;20202;-63
2022/03/09 12:59:30;;;;;;;6.53;3.20;;;17.10;58.80;;;;;;5204375;28;20204;-63
2022/03/09 13:02:23;;;;;;;6.63;3.70;;;17.10;58.90;;;;;;5203428;28;20194;-63
2022/03/09 13:05:21;;;;;;;5.63;3.30;;;17.10;58.90;;;;;;5205533;28;20198;-63
2022/03/09 13:08:14;;;;;;;8.73;4.55;;;17.10;59.00;;;;;;5185247;28;20450;-67
2022/03/09 13:11:06;;;;;;;7.77;3.60;;;17.10;59.10;;;;;;5184875;28;20221;-66
2022/03/09 13:14:00;;;;;;;6.07;3.33;;;17.20;58.80;;;;;;5199687;28;20225;-66
2022/03/09 13:17:02;;;;;;;6.50;4.10;;;17.20;58.80;;;;;;5205118;28;20210;-66
2022/03/09 13:19:54;;;;;;;6.07;3.40;;;17.10;58.30;;;;;;5202381;28;20207;-66
2022/03/09 13:22:49;;;;;;;6.57;2.97;;;17.10;57.90;;;;;;5202017;28;20201;-66
2022/03/09 13:25:41;;;;;;;7.70;3.57;;;17.10;57.70;;;;;;5206060;28;20194;-66
2022/03/09 13:28:33;;;;;;;5.67;3.23;;;17.20;57.50;;;;;;5205840;28;20229;-66
2022/03/09 13:31:40;;;;;;;8.27;3.73;;;17.10;57.40;;;;;;5204816;28;20197;-66
2022/03/09 13:34:36;;;;;;;6.63;3.53;;;17.10;57.80;;;;;;5199243;28;20209;-66
2022/03/09 13:37:37;;;;;;;5.03;3.37;;;17.10;56.80;;;;;;5199493;28;20253;-66
2022/03/09 13:40:31;;;;;;;7.83;3.57;;;17.10;57.10;;;;;;5205103;28;20225;-66
2022/03/09 13:43:26;;;;;;;5.00;3.20;;;17.10;56.60;;;;;;5205391;28;20190;-66
2022/03/09 13:46:22;;;;;;;4.77;2.67;;;17.10;57.20;;;;;;5196237;28;20290;-66
2022/03/09 13:49:14;;;;;;;3.97;2.60;;;17.10;56.80;;;;;;5186170;28;20194;-66
2022/03/09 13:52:28;;;;;;;5.40;3.13;;;17.10;57.10;;;;;;5204533;28;20194;-66
2022/03/09 13:55:23;;;;;;;4.70;2.80;;;17.10;57.30;;;;;;5204772;28;20209;-66
2022/03/09 13:58:19;;;;;;;3.87;2.43;;;17.10;57.50;;;;;;5205019;28;20364;-66
2022/03/09 14:01:13;;;;;;;4.33;2.63;;;17.10;57.60;;;;;;5205019;28;20213;-66
2022/03/09 14:04:06;;;;;;;4.37;2.90;;;17.10;57.70;;;;;;5187803;28;20596;-66
2022/03/09 14:06:58;;;;;;;3.93;2.83;;;17.10;57.90;;;;;;5186258;28;20296;-67
2022/03/09 14:10:14;;;;;;;4.47;2.50;;;17.10;57.90;;;;;;5184432;28;20199;-66
2022/03/09 14:13:11;;;;;;;5.27;3.07;;;17.20;58.00;;;;;;5184549;28;20195;-66
2022/03/09 14:16:06;;;;;;;3.23;2.23;;;17.10;58.50;;;;;;5184691;28;20203;-67
2022/03/09 14:18:58;;;;;;;3.87;2.57;;;17.20;58.80;;;;;;5186538;28;20209;-66
2022/03/09 14:21:52;;;;;;;3.17;2.20;;;17.20;58.80;;;;;;5196375;28;20190;-66
2022/03/09 14:24:44;;;;;;;3.20;2.13;;;17.20;58.90;;;;;;5204967;28;20198;-67
2022/03/09 14:27:37;;;;;;;3.40;2.10;;;17.20;58.80;;;;;;5204845;28;20221;-66
2022/03/09 14:30:29;;;;;;;3.87;2.30;;;17.30;58.80;;;;;;5204429;28;20685;-66
2022/03/09 14:33:22;;;;;;;3.77;2.70;;;17.30;58.70;;;;;;5199945;28;20317;-66
2022/03/09 14:36:16;;;;;;;5.23;2.60;;;17.30;58.60;;;;;;5186153;28;20213;-66
2022/03/09 14:39:08;;;;;;;4.83;2.73;;;17.30;58.60;;;;;;5195064;28;20200;-67
2022/03/09 14:42:00;;;;;;;4.90;2.20;;;17.30;58.50;;;;;;5192960;28;20202;-67
2022/03/09 14:44:52;;;;;;;4.10;2.67;;;17.30;58.50;;;;;;5195010;28;20654;-67
2022/03/09 14:47:45;;;;;;;4.27;2.50;;;17.40;58.50;;;;;;5194512;28;20273;-67
2022/03/09 14:50:39;;;;;;;4.47;2.60;;;17.40;58.40;;;;;;5194593;28;20195;-66
2022/03/09 14:53:36;;;;;;;4.93;2.60;;;17.40;58.40;;;;;;5195092;28;20190;-66
2022/03/09 14:56:28;;;;;;;3.83;2.33;;;17.40;58.40;;;;;;5194767;28;20565;-67
2022/03/09 14:59:22;;;;;;;4.13;2.40;;;17.40;58.30;;;;;;5193846;28;20252;-67
2022/03/09 15:02:14;;;;;;;5.03;2.70;;;17.40;58.30;;;;;;5193655;28;20197;-66
2022/03/09 15:05:07;;;;;;;4.10;2.53;;;17.40;58.30;;;;;;5197321;28;20194;-66